Time;durP1;ratioP1;P1;durP2;ratioP2;P2;SDS_P1;SDS_P2;PMS_P1;PMS_P2;Temp;Humidity;BMP_temperature;BMP_pressure;BME280_temperature;BME280_humidity;BME280_pressure;Samples;Min_cycle;Max_cycle;Signal;HPM_P1;HPM_P2
2021/12/26 00:02:12;;;;;;;2.38;1.33;;;-2.80;99.90;;;;;;4877329;29;20055;-86
2021/12/26 00:04:41;;;;;;;2.97;1.40;;;-2.80;99.90;;;;;;4879227;29;20355;-86
2021/12/26 00:07:08;;;;;;;5.07;1.45;;;-2.80;99.90;;;;;;4877936;29;20120;-86
2021/12/26 00:09:38;;;;;;;3.70;1.80;;;-2.90;99.90;;;;;;4877270;29;20036;-85
2021/12/26 00:12:07;;;;;;;3.80;1.40;;;-2.90;99.90;;;;;;4877220;29;20043;-85
2021/12/26 00:14:36;;;;;;;3.65;1.55;;;-2.90;99.90;;;;;;4862181;29;20044;-85
2021/12/26 00:17:06;;;;;;;3.03;1.40;;;-2.90;99.90;;;;;;4877072;29;20115;-86
2021/12/26 00:19:40;;;;;;;2.72;1.52;;;-2.90;99.90;;;;;;4878728;29;20078;-85
2021/12/26 00:22:07;;;;;;;4.15;1.75;;;-2.90;99.90;;;;;;4886668;29;20067;-86
2021/12/26 00:24:41;;;;;;;2.75;1.33;;;-2.90;99.90;;;;;;4875198;29;20518;-85
2021/12/26 00:27:11;;;;;;;4.70;1.65;;;-2.90;99.90;;;;;;4871964;29;20033;-86
2021/12/26 00:29:58;;;;;;;2.38;1.25;;;-2.90;99.90;;;;;;4876050;29;20080;-86
2021/12/26 00:32:25;;;;;;;3.05;1.38;;;-2.90;99.90;;;;;;4893809;29;20038;-86
2021/12/26 00:34:52;;;;;;;3.63;1.55;;;-2.90;99.90;;;;;;4846959;29;20374;-86
2021/12/26 00:37:29;;;;;;;4.90;1.70;;;-2.90;99.90;;;;;;4876025;29;20048;-86
2021/12/26 00:39:58;;;;;;;3.42;1.63;;;-2.90;99.90;;;;;;4876925;29;20111;-86
2021/12/26 00:42:29;;;;;;;4.38;1.45;;;-2.90;99.90;;;;;;4876147;29;20079;-85
2021/12/26 00:45:00;;;;;;;2.72;1.42;;;-2.90;99.90;;;;;;4864339;29;20044;-86
2021/12/26 00:47:30;;;;;;;4.32;1.42;;;-2.90;99.90;;;;;;4878484;29;20071;-84
2021/12/26 00:49:57;;;;;;;3.78;1.63;;;-2.90;99.90;;;;;;4877175;29;20032;-86
2021/12/26 00:52:31;;;;;;;3.90;1.60;;;-3.00;99.90;;;;;;4876903;29;20536;-85
2021/12/26 00:54:58;;;;;;;3.30;1.50;;;-3.00;99.90;;;;;;4861304;29;20037;-86
2021/12/26 00:57:29;;;;;;;2.33;1.33;;;-3.00;99.90;;;;;;4877802;29;20081;-85
2021/12/26 00:59:58;;;;;;;2.20;1.40;;;-3.00;99.90;;;;;;4863776;29;20033;-85
2021/12/26 01:02:36;;;;;;;2.40;1.30;;;-3.00;99.90;;;;;;4894493;29;20045;-85
2021/12/26 01:05:08;;;;;;;2.88;1.75;;;-3.00;99.90;;;;;;4879500;29;20037;-85
2021/12/26 01:07:51;;;;;;;3.25;1.52;;;-3.00;99.90;;;;;;4897239;29;20033;-85
2021/12/26 01:10:22;;;;;;;3.78;1.45;;;-3.00;99.90;;;;;;4883457;29;20120;-85
2021/12/26 01:12:53;;;;;;;3.40;1.45;;;-3.00;99.90;;;;;;4887089;29;20060;-84
2021/12/26 01:15:27;;;;;;;3.45;1.48;;;-3.00;99.90;;;;;;4896201;29;20076;-85
2021/12/26 01:17:57;;;;;;;3.38;1.40;;;-3.00;99.90;;;;;;4897857;29;20025;-86
2021/12/26 01:20:56;;;;;;;3.08;1.38;;;-3.00;99.90;;;;;;4897704;29;20024;-85
2021/12/26 01:23:17;;;;;;;2.47;1.33;;;-3.00;99.90;;;;;;4896910;29;20053;-86
2021/12/26 01:25:53;;;;;;;3.10;1.50;;;-3.00;99.90;;;;;;4897891;29;20021;-86
2021/12/26 01:28:23;;;;;;;3.05;1.48;;;-3.00;99.90;;;;;;4888059;29;20021;-85
2021/12/26 01:30:52;;;;;;;2.72;1.35;;;-3.00;99.90;;;;;;4905199;29;20268;-85
2021/12/26 01:33:27;;;;;;;2.78;1.30;;;-3.00;99.90;;;;;;4916964;29;20017;-85
2021/12/26 01:35:58;;;;;;;3.08;1.50;;;-3.10;99.90;;;;;;4902832;29;20037;-86
2021/12/26 01:38:25;;;;;;;2.83;1.60;;;-3.00;99.90;;;;;;4899571;29;20021;-86
2021/12/26 01:40:57;;;;;;;4.25;1.90;;;-3.10;99.90;;;;;;4866758;29;20043;-85
2021/12/26 01:43:56;;;;;;;3.10;1.63;;;-3.00;99.90;;;;;;4898628;29;20438;-85
2021/12/26 01:46:47;;;;;;;2.42;1.20;;;-3.00;99.90;;;;;;4881513;29;20037;-85
2021/12/26 01:49:21;;;;;;;3.72;1.30;;;-3.00;99.90;;;;;;4897688;29;20032;-85
2021/12/26 01:51:52;;;;;;;2.67;1.58;;;-3.00;99.90;;;;;;4851927;29;20055;-85
2021/12/26 01:54:32;;;;;;;2.63;1.52;;;-3.10;99.90;;;;;;4882159;29;20040;-85
2021/12/26 01:57:02;;;;;;;3.00;1.58;;;-3.10;99.90;;;;;;4881300;29;20056;-85
2021/12/26 01:59:28;;;;;;;2.92;1.25;;;-3.00;99.90;;;;;;4881352;29;20572;-85
2021/12/26 02:02:01;;;;;;;3.28;1.23;;;-3.00;99.90;;;;;;4880133;29;20416;-84
2021/12/26 02:04:30;;;;;;;2.50;1.30;;;-3.00;99.90;;;;;;4897793;29;20055;-85
2021/12/26 02:07:05;;;;;;;2.70;1.10;;;-3.00;99.90;;;;;;4898241;29;20553;-85
2021/12/26 02:09:40;;;;;;;2.42;1.20;;;-3.00;99.90;;;;;;4898982;29;20029;-86
2021/12/26 02:12:12;;;;;;;3.28;1.38;;;-3.00;99.90;;;;;;4898917;29;20055;-86
2021/12/26 02:14:41;;;;;;;2.63;1.42;;;-3.00;99.90;;;;;;4867750;29;20041;-85
2021/12/26 02:17:09;;;;;;;2.63;1.48;;;-2.90;99.90;;;;;;4882392;29;20100;-85
2021/12/26 02:19:42;;;;;;;2.70;1.20;;;-3.00;99.90;;;;;;4866695;29;20021;-85
2021/12/26 02:22:17;;;;;;;3.05;1.50;;;-3.00;99.90;;;;;;4882612;29;20119;-85
2021/12/26 02:27:39;;;;;;;4.78;1.58;;;-3.00;99.90;;;;;;4878391;29;20072;-85
2021/12/26 02:30:18;;;;;;;2.40;1.25;;;-3.00;99.90;;;;;;4863757;29;20032;-86
2021/12/26 02:32:49;;;;;;;3.33;1.30;;;-3.10;99.90;;;;;;4865030;29;20041;-86
2021/12/26 02:35:18;;;;;;;4.70;1.98;;;-3.10;99.90;;;;;;4881460;29;20033;-85
2021/12/26 02:37:48;;;;;;;3.10;1.63;;;-3.00;99.90;;;;;;4881308;29;20046;-86
2021/12/26 02:40:17;;;;;;;3.88;1.88;;;-2.60;99.90;;;;;;4882044;29;20033;-84
2021/12/26 02:42:43;;;;;;;4.07;1.92;;;-2.70;99.90;;;;;;4880503;29;20040;-85
2021/12/26 02:45:16;;;;;;;3.60;1.50;;;-2.80;99.90;;;;;;4865058;29;20037;-85
2021/12/26 02:47:49;;;;;;;4.53;2.03;;;-2.90;99.90;;;;;;4880139;29;20029;-85
2021/12/26 02:50:21;;;;;;;3.22;1.60;;;-2.90;99.90;;;;;;4863348;29;20041;-85
2021/12/26 02:52:49;;;;;;;2.45;1.40;;;-3.00;99.90;;;;;;4864148;29;20054;-85
2021/12/26 02:55:20;;;;;;;2.70;1.40;;;-3.10;99.90;;;;;;4880096;29;20037;-85
2021/12/26 02:57:54;;;;;;;2.38;1.52;;;-3.10;99.90;;;;;;4880778;29;20269;-84
2021/12/26 03:00:26;;;;;;;3.58;1.60;;;-3.10;99.90;;;;;;4880480;29;20029;-85
2021/12/26 03:02:59;;;;;;;3.35;1.60;;;-3.10;99.90;;;;;;4880341;29;20037;-85
2021/12/26 03:05:34;;;;;;;2.88;1.33;;;-3.10;99.90;;;;;;4880757;29;20073;-85
2021/12/26 03:08:03;;;;;;;2.90;1.33;;;-3.10;99.90;;;;;;4879895;29;20035;-85
2021/12/26 03:10:30;;;;;;;2.90;1.38;;;-3.10;99.90;;;;;;4862492;29;20464;-85
2021/12/26 03:12:58;;;;;;;2.83;1.27;;;-3.10;99.90;;;;;;4879488;29;20033;-84
2021/12/26 03:15:26;;;;;;;2.03;1.25;;;-3.10;99.90;;;;;;4862336;29;20039;-85
2021/12/26 03:17:55;;;;;;;2.72;1.23;;;-3.10;99.90;;;;;;4862444;29;20201;-84
2021/12/26 03:20:25;;;;;;;3.50;1.65;;;-3.10;99.90;;;;;;4862295;29;20068;-85
2021/12/26 03:22:51;;;;;;;3.35;1.52;;;-3.10;99.90;;;;;;4881978;29;20057;-85
2021/12/26 03:25:23;;;;;;;3.53;1.50;;;-3.10;99.90;;;;;;4887785;29;20037;-85
2021/12/26 03:27:50;;;;;;;1.95;1.25;;;-3.20;99.90;;;;;;4902364;29;20033;-84
2021/12/26 03:30:21;;;;;;;2.65;1.40;;;-3.10;99.90;;;;;;4875217;29;20025;-84
2021/12/26 03:32:48;;;;;;;3.20;1.13;;;-3.20;99.90;;;;;;4882111;29;20385;-84
2021/12/26 03:35:18;;;;;;;2.20;1.10;;;-3.20;99.90;;;;;;4864590;29;20041;-85
2021/12/26 03:37:46;;;;;;;3.03;1.15;;;-3.20;99.90;;;;;;4881851;29;20037;-84
2021/12/26 03:40:13;;;;;;;3.53;1.30;;;-3.20;99.90;;;;;;4881488;29;20152;-85
2021/12/26 03:42:39;;;;;;;3.85;1.35;;;-3.20;99.90;;;;;;4864040;29;20032;-84
2021/12/26 03:45:08;;;;;;;3.70;1.40;;;-3.20;99.90;;;;;;4880481;29;20374;-85
2021/12/26 03:47:41;;;;;;;2.33;1.17;;;-3.20;99.90;;;;;;4863517;29;20037;-84
2021/12/26 03:50:08;;;;;;;4.03;1.70;;;-3.20;99.90;;;;;;4880491;29;20036;-85
2021/12/26 03:52:35;;;;;;;2.30;1.20;;;-3.20;99.90;;;;;;4848337;29;20076;-85
2021/12/26 03:55:01;;;;;;;2.50;1.10;;;-3.20;99.90;;;;;;4880866;29;20033;-85
2021/12/26 03:57:28;;;;;;;3.08;1.15;;;-3.20;99.90;;;;;;4863812;29;20500;-84
2021/12/26 03:59:54;;;;;;;2.38;1.15;;;-3.20;99.90;;;;;;4880731;29;20032;-85
2021/12/26 04:02:22;;;;;;;2.97;1.52;;;-3.20;99.90;;;;;;4879184;29;20085;-84
2021/12/26 04:04:48;;;;;;;3.17;1.38;;;-3.20;99.90;;;;;;4879427;29;20040;-84
2021/12/26 04:07:14;;;;;;;3.67;1.60;;;-3.20;99.90;;;;;;4863833;29;20120;-84
2021/12/26 04:09:48;;;;;;;3.60;2.30;;;-3.20;99.90;;;;;;4866151;29;20085;-84
2021/12/26 04:12:14;;;;;;;2.00;1.00;;;-3.30;99.90;;;;;;4865818;29;20036;-84
2021/12/26 04:14:39;;;;;;;1.90;1.02;;;-3.30;99.90;;;;;;4864313;29;20033;-84
2021/12/26 04:17:06;;;;;;;2.60;1.42;;;-3.30;99.90;;;;;;4880152;29;20378;-85
2021/12/26 04:19:33;;;;;;;3.30;1.40;;;-3.20;99.90;;;;;;4863609;29;20044;-85
2021/12/26 04:22:02;;;;;;;2.50;1.40;;;-3.30;99.90;;;;;;4863050;29;20033;-84
2021/12/26 04:24:30;;;;;;;3.33;1.48;;;-3.30;99.90;;;;;;4880364;29;20458;-84
2021/12/26 04:26:56;;;;;;;3.15;1.35;;;-3.20;99.90;;;;;;4863692;29;20029;-85
2021/12/26 04:29:22;;;;;;;3.60;1.20;;;-3.30;99.90;;;;;;4865796;29;20128;-85
2021/12/26 04:31:48;;;;;;;3.08;1.40;;;-3.30;99.90;;;;;;4880463;29;20040;-85
2021/12/26 04:34:17;;;;;;;2.90;1.33;;;-3.20;99.90;;;;;;4862833;29;20033;-85
2021/12/26 04:36:46;;;;;;;4.65;2.08;;;-3.30;99.90;;;;;;4863501;29;20137;-85
2021/12/26 04:39:15;;;;;;;3.38;1.40;;;-3.30;99.90;;;;;;4883313;29;20108;-85
2021/12/26 04:41:45;;;;;;;1.83;1.10;;;-3.30;99.90;;;;;;4882475;29;20045;-84
2021/12/26 04:44:13;;;;;;;2.15;1.20;;;-3.20;99.90;;;;;;4867517;29;20086;-85
2021/12/26 04:46:39;;;;;;;2.90;1.50;;;-3.20;99.90;;;;;;4867054;29;20066;-86
2021/12/26 04:49:05;;;;;;;2.83;1.17;;;-3.30;99.90;;;;;;4851679;29;20029;-84
2021/12/26 04:51:31;;;;;;;2.75;1.40;;;-3.30;99.90;;;;;;4883397;29;20052;-85
2021/12/26 04:53:56;;;;;;;4.22;1.42;;;-3.30;99.90;;;;;;4867120;29;20116;-85
2021/12/26 04:56:23;;;;;;;3.75;1.65;;;-3.30;99.90;;;;;;4883516;29;20039;-85
2021/12/26 04:58:51;;;;;;;4.18;1.55;;;-3.20;99.90;;;;;;4866417;29;20029;-85
2021/12/26 05:01:17;;;;;;;3.08;1.65;;;-3.20;99.90;;;;;;4866666;29;20029;-85
2021/12/26 05:03:43;;;;;;;2.03;1.10;;;-3.20;99.90;;;;;;4866378;29;20055;-85
2021/12/26 05:06:10;;;;;;;2.58;1.20;;;-3.20;99.90;;;;;;4866605;29;20037;-86
2021/12/26 05:08:37;;;;;;;3.35;1.45;;;-3.20;99.90;;;;;;4881946;29;20025;-85
2021/12/26 05:11:03;;;;;;;1.83;1.20;;;-3.20;99.90;;;;;;4866247;29;20112;-86
2021/12/26 05:13:29;;;;;;;3.63;1.20;;;-3.20;99.90;;;;;;4866333;29;20043;-86
2021/12/26 05:15:56;;;;;;;2.47;1.50;;;-3.10;99.90;;;;;;4866555;29;20037;-86
2021/12/26 05:18:22;;;;;;;2.33;1.27;;;-3.10;99.90;;;;;;4855348;29;20100;-85
2021/12/26 05:20:48;;;;;;;2.13;1.00;;;-3.00;99.90;;;;;;4879188;29;20033;-85
2021/12/26 05:23:13;;;;;;;2.15;1.10;;;-3.00;99.90;;;;;;4904860;29;20061;-86
2021/12/26 05:25:41;;;;;;;2.55;1.40;;;-3.00;99.90;;;;;;4889358;29;20060;-85
2021/12/26 05:28:06;;;;;;;2.55;1.38;;;-2.90;99.90;;;;;;4886199;29;20030;-86
2021/12/26 05:30:35;;;;;;;3.45;1.52;;;-2.90;99.90;;;;;;4877578;29;20028;-86
2021/12/26 05:33:01;;;;;;;2.25;1.25;;;-2.80;99.90;;;;;;4868713;29;20496;-84
2021/12/26 05:35:31;;;;;;;4.63;1.20;;;-2.60;99.90;;;;;;4883956;29;20033;-87
2021/12/26 05:37:59;;;;;;;4.20;1.60;;;-2.70;99.90;;;;;;4867567;29;20113;-85
2021/12/26 05:40:28;;;;;;;3.53;1.55;;;-2.60;99.90;;;;;;4866967;29;20040;-85
2021/12/26 05:42:53;;;;;;;2.15;1.23;;;-2.60;99.90;;;;;;4883042;29;20124;-87
2021/12/26 05:45:20;;;;;;;3.50;1.60;;;-2.50;99.90;;;;;;4865940;29;20101;-86
2021/12/26 05:47:48;;;;;;;3.70;1.90;;;-2.50;99.90;;;;;;4883175;29;20419;-86
2021/12/26 05:50:18;;;;;;;3.15;1.30;;;-2.40;99.90;;;;;;4881840;29;20025;-86
2021/12/26 05:52:46;;;;;;;4.22;1.38;;;-2.50;99.90;;;;;;4882945;29;20052;-86
2021/12/26 05:55:12;;;;;;;3.20;1.40;;;-2.40;99.90;;;;;;4882944;29;20025;-86
2021/12/26 05:57:39;;;;;;;3.33;1.33;;;-2.40;99.90;;;;;;4866413;29;20473;-86
2021/12/26 06:00:10;;;;;;;4.32;1.63;;;-2.50;99.90;;;;;;4865783;29;20071;-86
2021/12/26 06:02:40;;;;;;;3.15;1.20;;;-2.40;99.90;;;;;;4866091;29;20053;-86
2021/12/26 06:05:09;;;;;;;2.83;1.20;;;-2.40;99.90;;;;;;4866068;29;20069;-86
2021/12/26 06:07:36;;;;;;;2.78;1.27;;;-2.40;99.90;;;;;;4881831;29;20133;-86
2021/12/26 06:10:10;;;;;;;2.55;1.30;;;-2.40;99.90;;;;;;4865931;29;20021;-86
2021/12/26 06:12:53;;;;;;;2.45;1.40;;;-2.40;99.90;;;;;;4880987;29;20033;-86
2021/12/26 06:15:22;;;;;;;4.10;1.48;;;-2.40;99.90;;;;;;4865860;29;20077;-86
2021/12/26 06:17:49;;;;;;;3.08;1.40;;;-2.30;99.90;;;;;;4866153;29;20036;-86
2021/12/26 06:20:16;;;;;;;4.68;1.30;;;-2.30;99.90;;;;;;4882498;29;20482;-86
2021/12/26 06:22:43;;;;;;;2.78;1.10;;;-2.20;99.90;;;;;;4865547;29;20143;-87
2021/12/26 06:25:13;;;;;;;2.58;1.20;;;-2.20;99.90;;;;;;4881396;29;20037;-86
2021/12/26 06:27:41;;;;;;;3.63;1.40;;;-2.20;99.90;;;;;;4882661;29;20029;-87
2021/12/26 06:30:10;;;;;;;2.70;1.20;;;-2.10;99.90;;;;;;4865823;29;20033;-86
2021/12/26 06:32:43;;;;;;;3.03;1.35;;;-2.10;99.90;;;;;;4865647;29;20044;-86
2021/12/26 06:35:12;;;;;;;2.65;1.40;;;-2.10;99.90;;;;;;4865707;29;20048;-86
2021/12/26 06:37:41;;;;;;;2.08;1.15;;;-2.00;99.90;;;;;;4865557;29;20121;-87
2021/12/26 06:40:15;;;;;;;3.47;1.30;;;-2.10;99.90;;;;;;4880633;29;20029;-87
2021/12/26 06:42:44;;;;;;;3.58;1.48;;;-2.00;99.90;;;;;;4865484;29;20481;-86
2021/12/26 06:45:15;;;;;;;2.92;1.27;;;-2.00;99.90;;;;;;4865842;29;20033;-86
2021/12/26 06:47:48;;;;;;;3.15;1.33;;;-2.00;99.90;;;;;;4865336;29;20032;-86
2021/12/26 06:50:15;;;;;;;3.07;1.23;;;-2.00;99.90;;;;;;4865422;29;20492;-86
2021/12/26 06:52:48;;;;;;;3.20;1.20;;;-2.00;99.90;;;;;;4865438;29;20300;-87
2021/12/26 06:55:20;;;;;;;2.05;0.98;;;-2.00;99.90;;;;;;4865770;29;20075;-86
2021/12/26 06:57:47;;;;;;;4.53;1.50;;;-1.90;99.90;;;;;;4865564;29;20089;-87
2021/12/26 07:00:24;;;;;;;3.00;1.10;;;-1.90;99.90;;;;;;4880504;29;20025;-87
2021/12/26 07:02:52;;;;;;;;;;;-1.90;99.90;;;;;;4864711;29;20045;-86
2021/12/26 07:05:23;;;;;;;2.90;1.20;;;-1.80;99.90;;;;;;4880548;29;19947;-86
2021/12/26 07:07:59;;;;;;;2.28;1.00;;;-1.90;99.90;;;;;;4882257;29;20050;-87
2021/12/26 07:10:26;;;;;;;2.85;1.30;;;-1.90;99.90;;;;;;4865168;29;20465;-86
2021/12/26 07:12:56;;;;;;;2.83;1.40;;;-1.90;99.90;;;;;;4882148;29;20422;-86
2021/12/26 07:15:22;;;;;;;3.03;1.45;;;-1.90;99.90;;;;;;4864666;29;20040;-86
2021/12/26 07:18:12;;;;;;;3.50;1.38;;;-1.90;99.90;;;;;;4864820;29;20052;-87
2021/12/26 07:20:44;;;;;;;3.97;1.30;;;-1.90;99.90;;;;;;4864570;29;20405;-87
2021/12/26 07:23:16;;;;;;;2.63;1.40;;;-1.90;99.90;;;;;;4881319;29;20057;-87
2021/12/26 07:25:43;;;;;;;2.30;1.20;;;-1.90;99.90;;;;;;4887403;29;20068;-87
2021/12/26 07:28:15;;;;;;;3.60;1.42;;;-1.90;99.90;;;;;;4887353;29;20089;-86
2021/12/26 07:30:43;;;;;;;2.47;1.40;;;-1.90;99.90;;;;;;4865102;29;20029;-86
2021/12/26 07:33:12;;;;;;;3.72;1.55;;;-1.90;99.90;;;;;;4867043;29;20029;-88
2021/12/26 07:36:09;;;;;;;1.90;1.02;;;-1.90;99.90;;;;;;4882570;29;20029;-88
2021/12/26 07:38:41;;;;;;;2.05;1.00;;;-1.90;99.90;;;;;;4881605;29;20033;-87
2021/12/26 07:41:19;;;;;;;2.38;1.15;;;-2.00;99.90;;;;;;4891540;29;20029;-89
2021/12/26 07:43:49;;;;;;;2.58;0.98;;;-1.90;99.90;;;;;;4883614;29;20047;-87
2021/12/26 07:46:27;;;;;;;2.53;1.10;;;-2.00;99.90;;;;;;4860136;29;20036;-89
2021/12/26 07:48:56;;;;;;;2.83;1.30;;;-2.00;99.90;;;;;;4868702;29;20040;-88
2021/12/26 07:51:35;;;;;;;3.25;1.40;;;-2.00;99.90;;;;;;4881043;29;20043;-88
2021/12/26 07:54:02;;;;;;;2.58;1.35;;;-2.00;99.90;;;;;;4863840;29;20052;-87
2021/12/26 07:56:30;;;;;;;3.40;1.67;;;-2.00;99.90;;;;;;4864246;29;20501;-89
2021/12/26 07:58:56;;;;;;;3.92;1.83;;;-2.00;99.90;;;;;;4864283;29;20032;-87
2021/12/26 08:01:31;;;;;;;2.97;1.50;;;-2.10;99.90;;;;;;4864647;29;20070;-87
2021/12/26 08:04:01;;;;;;;4.03;1.60;;;-2.00;99.90;;;;;;4867005;29;20033;-88
2021/12/26 08:06:33;;;;;;;2.90;1.50;;;-2.00;99.90;;;;;;4880734;29;20032;-87
2021/12/26 08:09:05;;;;;;;3.08;1.35;;;-2.10;99.90;;;;;;4864223;29;20026;-88
2021/12/26 08:11:51;;;;;;;3.57;1.53;;;-2.10;99.90;;;;;;4880855;29;20029;-89
2021/12/26 08:14:23;;;;;;;3.33;1.60;;;-2.10;99.90;;;;;;4864179;29;20088;-88
2021/12/26 08:17:01;;;;;;;3.08;1.40;;;-2.10;99.90;;;;;;4880477;29;20385;-88
2021/12/26 08:19:41;;;;;;;3.28;1.30;;;-2.10;99.90;;;;;;4863976;29;20543;-88
2021/12/26 08:22:17;;;;;;;4.38;2.00;;;-2.10;99.90;;;;;;4864122;29;20045;-88
2021/12/26 08:25:01;;;;;;;2.85;1.40;;;-2.10;99.90;;;;;;4875156;29;20065;-89
2021/12/26 08:30:42;;;;;;;3.75;1.83;;;-2.10;99.90;;;;;;4858648;29;20113;-89
2021/12/26 08:33:10;;;;;;;2.50;1.27;;;-2.10;99.90;;;;;;4862418;29;20070;-89
2021/12/26 08:36:09;;;;;;;1.92;1.13;;;-2.10;99.90;;;;;;4862139;29;20037;-89
2021/12/26 08:38:49;;;;;;;3.13;1.25;;;-2.00;99.90;;;;;;4891424;29;20034;-89
2021/12/26 08:41:25;;;;;;;3.25;1.30;;;-2.00;99.90;;;;;;4862393;29;20036;-88
2021/12/26 08:44:00;;;;;;;2.83;1.50;;;-2.00;99.90;;;;;;4862727;29;20048;-88
2021/12/26 08:46:46;;;;;;;2.55;1.20;;;-2.00;99.90;;;;;;4876093;29;20040;-89
2021/12/26 08:49:19;;;;;;;3.28;1.35;;;-2.00;99.90;;;;;;4859968;29;20037;-90
2021/12/26 08:51:56;;;;;;;2.43;1.40;;;-2.00;99.90;;;;;;4861937;29;20025;-89
2021/12/26 08:54:26;;;;;;;3.65;1.42;;;-2.00;99.90;;;;;;4862237;29;20313;-89
2021/12/26 08:56:57;;;;;;;3.10;1.25;;;-2.00;99.90;;;;;;4878133;29;20053;-87
2021/12/26 08:59:30;;;;;;;2.47;1.33;;;-1.90;99.90;;;;;;4879107;29;20052;-88
2021/12/26 09:02:07;;;;;;;2.55;1.40;;;-1.90;99.90;;;;;;4865651;29;20044;-86
2021/12/26 09:04:40;;;;;;;2.75;1.40;;;-1.80;99.90;;;;;;4863213;29;20060;-89
2021/12/26 09:07:13;;;;;;;3.13;1.63;;;-1.70;99.90;;;;;;4861385;29;20386;-88
2021/12/26 09:09:41;;;;;;;4.28;1.73;;;-1.70;99.90;;;;;;4875742;29;20068;-88
2021/12/26 09:12:15;;;;;;;4.13;1.75;;;-1.30;99.90;;;;;;4860407;29;20499;-88
2021/12/26 09:14:51;;;;;;;3.30;1.30;;;-0.70;99.90;;;;;;4890276;29;20222;-88
2021/12/26 09:17:18;;;;;;;2.67;1.33;;;-0.60;99.90;;;;;;4876644;29;20388;-88
2021/12/26 09:19:48;;;;;;;3.95;1.65;;;0.00;99.90;;;;;;4862008;29;20062;-87
2021/12/26 09:22:17;;;;;;;3.08;1.63;;;1.10;99.90;;;;;;4872696;29;20056;-86
2021/12/26 09:25:03;;;;;;;4.38;1.90;;;2.20;99.90;;;;;;4901170;29;20037;-86
2021/12/26 09:27:29;;;;;;;3.30;1.60;;;3.20;99.90;;;;;;4881343;29;20040;-87
2021/12/26 09:29:56;;;;;;;4.15;1.38;;;4.00;99.90;;;;;;4884127;29;20037;-87
2021/12/26 09:32:24;;;;;;;3.03;1.58;;;4.60;99.90;;;;;;4867374;29;20052;-86
2021/12/26 09:34:50;;;;;;;3.58;1.95;;;5.00;99.90;;;;;;4868081;29;20037;-85
2021/12/26 09:37:22;;;;;;;3.33;1.63;;;5.30;99.90;;;;;;4882656;29;20054;-86
2021/12/26 09:39:48;;;;;;;3.25;1.63;;;5.20;99.90;;;;;;4883212;29;20485;-86
2021/12/26 09:42:14;;;;;;;3.63;1.80;;;5.20;99.90;;;;;;4866130;29;20047;-85
2021/12/26 09:45:00;;;;;;;;;;;;;;;;;;;;;
2021/12/26 09:47:28;;;;;;;3.67;1.60;;;5.40;99.90;;;;;;4883327;29;20021;-85
2021/12/26 09:50:06;;;;;;;2.83;1.80;;;5.60;99.90;;;;;;4883259;29;20033;-86
2021/12/26 09:52:43;;;;;;;3.03;1.73;;;5.90;99.90;;;;;;4883115;29;20029;-85
2021/12/26 09:55:14;;;;;;;2.97;1.75;;;6.40;99.90;;;;;;4866214;29;20382;-86
2021/12/26 09:57:41;;;;;;;4.88;2.15;;;6.70;99.90;;;;;;4882878;29;20036;-87
2021/12/26 10:00:43;;;;;;;3.08;1.42;;;7.00;99.90;;;;;;4854092;29;20032;-86
2021/12/26 10:03:28;;;;;;;2.95;1.60;;;7.20;99.90;;;;;;4870047;29;20124;-86
2021/12/26 10:06:14;;;;;;;3.03;1.52;;;7.30;99.90;;;;;;4882067;29;20064;-89
2021/12/26 10:09:02;;;;;;;3.20;1.80;;;7.40;99.90;;;;;;4868935;29;20040;-87
2021/12/26 10:11:31;;;;;;;3.47;1.90;;;7.50;99.90;;;;;;4882298;29;20081;-87
2021/12/26 10:14:03;;;;;;;3.08;1.65;;;7.60;99.90;;;;;;4900697;29;20040;-86
2021/12/26 10:16:37;;;;;;;3.53;1.63;;;7.80;99.90;;;;;;4884311;29;20095;-88
2021/12/26 10:32:39;;;;;;;3.17;1.80;;;8.10;99.90;;;;;;6184942;22;1827475;-87
2021/12/26 10:35:08;;;;;;;3.67;2.10;;;8.00;99.90;;;;;;6235576;23;20436;-86
2021/12/26 10:37:54;;;;;;;3.33;1.90;;;8.10;99.90;;;;;;6259261;23;20407;-86
2021/12/26 10:40:31;;;;;;;5.10;2.58;;;8.30;99.90;;;;;;6229007;23;20008;-86
2021/12/26 10:42:59;;;;;;;3.75;2.13;;;8.40;99.90;;;;;;6204752;23;20436;-86
2021/12/26 10:45:35;;;;;;;4.03;1.88;;;8.40;99.90;;;;;;6229784;23;19996;-86
2021/12/26 10:48:05;;;;;;;3.33;1.90;;;8.30;99.90;;;;;;6228846;23;20000;-86
2021/12/26 10:50:35;;;;;;;3.38;1.75;;;8.40;99.90;;;;;;6178368;23;20011;-86
2021/12/26 10:53:11;;;;;;;2.85;1.88;;;8.60;99.90;;;;;;6228955;23;20087;-85
2021/12/26 10:56:08;;;;;;;3.50;2.13;;;8.60;99.90;;;;;;6203999;23;20007;-85
2021/12/26 10:58:36;;;;;;;3.20;1.80;;;8.70;99.90;;;;;;6226893;23;20006;-86
2021/12/26 11:01:05;;;;;;;3.47;2.20;;;8.80;99.90;;;;;;6255835;23;20007;-86
2021/12/26 11:03:31;;;;;;;4.38;2.80;;;8.90;99.90;;;;;;6210866;23;20019;-85
2021/12/26 11:06:03;;;;;;;4.90;2.55;;;8.70;99.90;;;;;;6217886;23;20008;-86
2021/12/26 11:08:37;;;;;;;4.47;2.22;;;8.40;99.90;;;;;;6223039;23;20034;-85
2021/12/26 11:11:23;;;;;;;4.13;2.45;;;8.30;99.90;;;;;;6240275;23;20015;-85
2021/12/26 11:14:01;;;;;;;5.20;2.47;;;8.10;99.90;;;;;;6232157;23;20032;-86
2021/12/26 11:16:41;;;;;;;4.57;2.45;;;8.10;99.90;;;;;;6229392;23;20003;-85
2021/12/26 11:19:07;;;;;;;5.15;2.50;;;8.20;99.90;;;;;;6229152;23;20004;-86
2021/12/26 11:21:37;;;;;;;3.40;1.80;;;8.10;99.90;;;;;;6203191;23;20012;-86
2021/12/26 11:24:04;;;;;;;4.40;2.20;;;8.00;99.90;;;;;;6228205;23;20066;-87
2021/12/26 11:26:30;;;;;;;4.78;2.63;;;8.10;99.90;;;;;;6203073;23;20019;-85
2021/12/26 11:28:57;;;;;;;4.82;2.35;;;8.10;99.90;;;;;;6228698;23;20004;-86
2021/12/26 11:31:28;;;;;;;4.18;2.33;;;8.10;99.90;;;;;;6200135;23;20016;-86
2021/12/26 11:33:59;;;;;;;3.80;2.00;;;8.20;99.90;;;;;;6221372;23;20000;-86
2021/12/26 11:36:29;;;;;;;4.65;2.38;;;8.30;99.90;;;;;;6221298;23;20004;-85
2021/12/26 11:39:05;;;;;;;5.80;2.58;;;8.30;99.90;;;;;;6197052;23;20000;-86
2021/12/26 11:41:59;;;;;;;4.07;2.35;;;8.10;99.90;;;;;;6195145;23;20043;-86
2021/12/26 11:44:47;;;;;;;5.72;2.72;;;7.70;99.90;;;;;;6248392;23;20008;-86
2021/12/26 11:47:39;;;;;;;4.43;2.40;;;6.90;99.90;;;;;;6247854;23;20000;-86
2021/12/26 11:50:43;;;;;;;4.38;2.88;;;5.80;99.90;;;;;;6248362;23;20004;-86
2021/12/26 11:53:52;;;;;;;5.40;2.70;;;4.70;99.90;;;;;;6246954;23;20012;-86
2021/12/26 11:56:36;;;;;;;3.95;2.53;;;3.70;99.90;;;;;;6221611;23;20038;-86
2021/12/26 11:59:13;;;;;;;4.80;2.65;;;3.00;99.90;;;;;;6221285;23;20004;-85
2021/12/26 12:01:48;;;;;;;4.28;2.15;;;2.60;99.90;;;;;;6220805;23;20318;-84
2021/12/26 12:04:24;;;;;;;5.00;2.65;;;2.30;99.90;;;;;;6221875;23;20004;-84
2021/12/26 12:07:09;;;;;;;3.88;2.50;;;2.10;99.90;;;;;;6220668;23;20581;-85
2021/12/26 12:09:43;;;;;;;5.15;2.78;;;2.00;99.90;;;;;;6195703;23;20004;-85
2021/12/26 12:12:22;;;;;;;3.90;2.40;;;1.90;99.90;;;;;;6248034;23;20000;-85
2021/12/26 12:15:01;;;;;;;4.03;2.15;;;1.80;99.90;;;;;;6220450;23;20004;-84
2021/12/26 12:17:29;;;;;;;5.15;2.50;;;1.70;99.90;;;;;;6247460;23;20050;-84
2021/12/26 12:20:20;;;;;;;3.90;2.45;;;1.50;99.90;;;;;;6220351;23;20089;-85
2021/12/26 12:23:13;;;;;;;4.95;2.60;;;1.50;99.90;;;;;;6221344;23;20035;-85
2021/12/26 12:25:50;;;;;;;4.60;2.50;;;1.40;99.90;;;;;;6248197;23;20004;-85
2021/12/26 12:28:43;;;;;;;3.75;2.22;;;1.40;99.90;;;;;;6249030;23;20154;-85
2021/12/26 12:31:21;;;;;;;4.65;2.50;;;1.40;99.90;;;;;;6197854;23;20020;-86
2021/12/26 12:34:05;;;;;;;3.25;2.15;;;1.50;99.90;;;;;;6222368;23;20004;-86
2021/12/26 12:36:39;;;;;;;5.88;2.60;;;1.50;99.90;;;;;;6200415;23;20425;-86
2021/12/26 12:39:10;;;;;;;4.18;2.05;;;1.50;99.90;;;;;;6220968;23;20050;-86
2021/12/26 12:41:39;;;;;;;4.72;2.47;;;1.60;99.90;;;;;;6247017;23;20008;-86
2021/12/26 12:44:23;;;;;;;5.70;2.88;;;1.60;99.90;;;;;;6220057;23;20034;-86
2021/12/26 12:47:01;;;;;;;4.97;3.10;;;1.70;99.90;;;;;;6247786;23;20074;-86
2021/12/26 12:50:17;;;;;;;5.38;2.88;;;1.70;99.90;;;;;;6202178;23;20008;-88
2021/12/26 12:52:50;;;;;;;6.05;2.85;;;1.70;99.90;;;;;;6182518;23;20008;-86
2021/12/26 12:55:50;;;;;;;6.45;3.10;;;1.70;99.90;;;;;;6268471;22;20004;-86
2021/12/26 12:58:31;;;;;;;4.55;2.70;;;1.80;99.90;;;;;;6252795;23;20008;-86
2021/12/26 13:01:00;;;;;;;5.28;2.90;;;1.80;99.90;;;;;;6222249;23;20008;-86
2021/12/26 13:03:40;;;;;;;4.55;2.58;;;1.80;99.90;;;;;;6197745;23;20008;-86
2021/12/26 13:06:09;;;;;;;5.57;2.53;;;1.90;99.90;;;;;;6247663;23;20000;-86
2021/12/26 13:08:36;;;;;;;4.45;2.58;;;1.90;99.90;;;;;;6220531;23;20004;-87
2021/12/26 13:11:05;;;;;;;4.30;2.28;;;1.90;99.90;;;;;;6195650;23;20012;-88
2021/12/26 13:13:31;;;;;;;4.85;2.80;;;1.90;99.90;;;;;;6248739;23;20058;-86
2021/12/26 13:16:06;;;;;;;5.45;2.90;;;1.90;99.90;;;;;;6221898;23;20008;-88
2021/12/26 13:18:46;;;;;;;4.75;2.83;;;1.80;99.90;;;;;;6219730;23;20062;-87
2021/12/26 13:21:14;;;;;;;4.22;2.83;;;1.80;99.90;;;;;;6247220;23;20000;-88
2021/12/26 13:23:43;;;;;;;6.82;3.35;;;1.80;99.90;;;;;;6194993;23;20103;-87
2021/12/26 13:26:11;;;;;;;6.20;3.65;;;1.80;99.90;;;;;;6219070;23;20008;-87
2021/12/26 13:28:43;;;;;;;6.72;3.85;;;1.80;99.90;;;;;;6244690;23;20007;-86
2021/12/26 13:31:14;;;;;;;6.30;3.53;;;1.80;99.90;;;;;;6192195;23;20026;-87
2021/12/26 13:33:53;;;;;;;5.80;3.17;;;1.70;99.90;;;;;;6246111;23;20079;-88
2021/12/26 13:37:24;;;;;;;6.30;3.53;;;1.70;99.90;;;;;;6220665;23;20054;-87
2021/12/26 13:39:55;;;;;;;6.35;3.60;;;1.70;99.90;;;;;;6216311;23;20012;-87